createdAt,value
2016-12-01T00:00:27.143Z,8.92
2016-12-01T00:01:26.526Z,8.97
2016-12-01T00:02:26.856Z,9.04
2016-12-01T00:03:27.197Z,9.1
2016-12-01T00:04:27.207Z,9
2016-12-01T00:05:26.905Z,9.11
2016-12-01T00:06:26.609Z,9.04
2016-12-01T00:07:26.939Z,9.03
2016-12-01T00:08:27.270Z,9.1
2016-12-01T00:09:26.969Z,9.02
2016-12-01T00:10:26.672Z,9.1
2016-12-01T00:11:26.686Z,9
2016-12-01T00:12:26.704Z,9.02
2016-12-01T00:13:27.350Z,8.92
2016-12-01T00:14:26.736Z,9
2016-12-01T00:15:26.756Z,8.94
2016-12-01T00:16:27.085Z,8.99
2016-12-01T00:17:27.103Z,9.06
2016-12-01T00:18:27.119Z,9.02
2016-12-01T00:19:26.825Z,9.03
2016-12-01T00:20:27.145Z,9
2016-12-01T00:21:27.478Z,8.95
2016-12-01T00:22:27.500Z,9.08
2016-12-01T00:23:27.198Z,9.03
2016-12-01T00:24:27.210Z,9.02
2016-12-01T00:25:27.229Z,8.99
2016-12-01T00:26:27.245Z,8.94
2016-12-01T00:27:27.575Z,8.92
2016-12-01T00:28:27.276Z,8.94
2016-12-01T00:29:27.292Z,8.82
2016-12-01T00:30:27.309Z,8.92
2016-12-01T00:31:27.323Z,8.92
2016-12-01T00:32:27.346Z,8.79
2016-12-01T00:33:27.387Z,8.94
2016-12-01T00:34:27.690Z,8.79
2016-12-01T00:35:27.388Z,8.79
2016-12-01T00:36:27.417Z,8.85
2016-12-01T00:37:27.423Z,8.78
2016-12-01T00:38:27.123Z,8.76
2016-12-01T00:39:27.768Z,8.79
2016-12-01T00:40:27.490Z,8.79
2016-12-01T00:41:27.170Z,8.92
2016-12-01T00:42:27.185Z,8.99
2016-12-01T00:43:27.525Z,8.97
2016-12-01T00:44:27.554Z,8.94
2016-12-01T00:45:27.547Z,8.97
2016-12-01T00:46:27.250Z,8.92
2016-12-01T00:47:27.582Z,8.97
2016-12-01T00:48:27.600Z,9.03
2016-12-01T00:49:27.935Z,8.94
2016-12-01T00:50:27.947Z,8.97
2016-12-01T00:51:27.962Z,9
2016-12-01T00:52:27.664Z,9
2016-12-01T00:53:27.676Z,8.97
2016-12-01T00:54:27.378Z,9.06
2016-12-01T00:55:27.710Z,8.97
2016-12-01T00:56:27.729Z,8.95
2016-12-01T00:57:27.747Z,9.03
2016-12-01T00:58:28.083Z,9.03
2016-12-01T00:59:28.091Z,9.04
2016-12-01T01:00:27.792Z,8.91
2016-12-01T01:01:27.809Z,8.94
2016-12-01T01:02:27.503Z,8.92
2016-12-01T01:03:27.523Z,8.82
2016-12-01T01:04:27.537Z,8.81
2016-12-01T01:05:28.211Z,8.81
2016-12-01T01:06:27.588Z,8.76
2016-12-01T01:07:27.901Z,8.81
2016-12-01T01:08:27.918Z,8.92
2016-12-01T01:09:27.935Z,8.95
2016-12-01T01:10:27.953Z,8.87
2016-12-01T01:11:27.650Z,8.91
2016-12-01T01:12:27.667Z,8.88
2016-12-01T01:13:28.315Z,8.95
2016-12-01T01:14:28.011Z,8.88
2016-12-01T01:15:27.716Z,8.87
2016-12-01T01:16:27.731Z,8.82
2016-12-01T01:17:27.745Z,8.78
2016-12-01T01:18:28.080Z,8.76
2016-12-01T01:19:28.093Z,8.64
2016-12-01T01:20:28.427Z,8.73
2016-12-01T01:21:28.125Z,8.73
2016-12-01T01:22:28.151Z,8.67
2016-12-01T01:23:27.841Z,8.84
2016-12-01T01:24:28.190Z,8.69
2016-12-01T01:25:27.874Z,8.66
2016-12-01T01:26:27.888Z,8.6
2016-12-01T01:27:27.929Z,8.6
2016-12-01T01:28:28.254Z,8.69
2016-12-01T01:29:28.569Z,8.73
2016-12-01T01:30:28.276Z,8.74
2016-12-01T01:31:28.315Z,8.63
2016-12-01T01:32:28.304Z,8.61
2016-12-01T01:33:28.003Z,8.6
2016-12-01T01:34:28.330Z,8.49
2016-12-01T01:35:28.349Z,8.61
2016-12-01T01:36:28.682Z,8.46
2016-12-01T01:37:28.383Z,8.33
2016-12-01T01:38:28.398Z,8.42
2016-12-01T01:39:28.100Z,8.48
2016-12-01T01:40:28.427Z,8.51
2016-12-01T01:41:28.132Z,8.37
2016-12-01T01:42:28.464Z,8.45
2016-12-01T01:43:28.793Z,8.42
2016-12-01T01:44:28.495Z,8.42
2016-12-01T01:45:28.509Z,8.44
2016-12-01T01:46:28.209Z,8.49
2016-12-01T01:47:28.223Z,8.58
2016-12-01T01:48:28.558Z,8.49
2016-12-01T01:49:28.595Z,8.53
2016-12-01T01:50:28.605Z,8.58
2016-12-01T01:51:28.921Z,8.38
2016-12-01T01:52:28.616Z,8.27
2016-12-01T01:53:28.631Z,8.33
2016-12-01T01:54:28.344Z,8.34
2016-12-01T01:55:28.985Z,8.28
2016-12-01T01:56:28.999Z,8.3
2016-12-01T01:57:28.418Z,8.38
2016-12-01T01:58:29.027Z,8.24
2016-12-01T01:59:28.419Z,8.31
2016-12-01T02:00:28.752Z,8.34
2016-12-01T02:01:28.760Z,8.31
2016-12-01T02:02:28.778Z,8.33
2016-12-01T02:03:28.794Z,8.34
2016-12-01T02:04:28.810Z,8.24
2016-12-01T02:05:29.138Z,8.2
2016-12-01T02:06:29.155Z,8.27
2016-12-01T02:07:28.856Z,8.28
2016-12-01T02:08:28.558Z,8.27
2016-12-01T02:09:29.094Z,8.15
2016-12-01T02:10:28.905Z,8.09
2016-12-01T02:11:28.920Z,8.19
2016-12-01T02:12:28.643Z,8.15
2016-12-01T02:13:28.950Z,8.16
2016-12-01T02:14:28.967Z,8.16
2016-12-01T02:15:29.303Z,8.16
2016-12-01T02:16:29.314Z,8.12
2016-12-01T02:17:28.701Z,8.23
2016-12-01T02:18:29.342Z,8.12
2016-12-01T02:19:29.047Z,8.03
2016-12-01T02:20:28.743Z,8.13
2016-12-01T02:21:29.409Z,8.05
2016-12-01T02:22:28.773Z,8.08
2016-12-01T02:23:29.106Z,8.2
2016-12-01T02:24:28.805Z,7.94
2016-12-01T02:25:29.138Z,7.95
2016-12-01T02:26:29.158Z,7.93
2016-12-01T02:27:29.168Z,7.94
2016-12-01T02:28:29.500Z,7.98
2016-12-01T02:29:29.201Z,7.9
2016-12-01T02:30:28.899Z,7.94
2016-12-01T02:31:29.230Z,7.88
2016-12-01T02:32:29.248Z,7.9
2016-12-01T02:33:28.949Z,7.83
2016-12-01T02:34:28.963Z,7.91
2016-12-01T02:35:29.292Z,7.98
2016-12-01T02:36:28.994Z,8.01
2016-12-01T02:37:29.327Z,7.97
2016-12-01T02:38:29.023Z,7.98
2016-12-01T02:39:29.354Z,8.05
2016-12-01T02:40:29.824Z,7.93
2016-12-01T02:41:29.387Z,7.88
2016-12-01T02:42:29.716Z,7.85
2016-12-01T02:43:29.736Z,7.87
2016-12-01T02:44:29.751Z,7.76
2016-12-01T02:45:29.446Z,7.76
2016-12-01T02:46:29.464Z,7.76
2016-12-01T02:47:29.173Z,7.69
2016-12-01T02:48:29.808Z,7.79
2016-12-01T02:49:29.829Z,7.79
2016-12-01T02:50:29.842Z,7.88
2016-12-01T02:51:29.543Z,7.72
2016-12-01T02:52:29.242Z,7.82
2016-12-01T02:53:29.255Z,7.75
2016-12-01T02:54:29.586Z,7.73
2016-12-01T02:55:29.925Z,7.77
2016-12-01T02:56:29.621Z,7.79
2016-12-01T02:57:29.316Z,7.67
2016-12-01T02:58:29.973Z,7.66
2016-12-01T02:59:29.345Z,7.67
2016-12-01T03:00:29.995Z,7.73
2016-12-01T03:01:29.690Z,7.67
2016-12-01T03:02:29.709Z,7.66
2016-12-01T03:03:29.408Z,7.69
2016-12-01T03:04:29.425Z,7.56
2016-12-01T03:05:29.774Z,7.69
2016-12-01T03:06:29.784Z,7.53
2016-12-01T03:07:29.783Z,7.53
2016-12-01T03:08:29.488Z,7.54
2016-12-01T03:09:29.838Z,7.56
2016-12-01T03:10:29.836Z,7.6
2016-12-01T03:11:29.847Z,7.57
2016-12-01T03:12:29.860Z,7.51
2016-12-01T03:13:30.194Z,7.5
2016-12-01T03:14:29.583Z,7.48
2016-12-01T03:15:29.601Z,7.54
2016-12-01T03:16:29.607Z,7.58
2016-12-01T03:17:29.941Z,7.61
2016-12-01T03:18:29.639Z,7.67
2016-12-01T03:19:29.986Z,7.66
2016-12-01T03:20:29.672Z,7.69
2016-12-01T03:21:29.683Z,7.7
2016-12-01T03:22:30.329Z,7.66
2016-12-01T03:23:30.345Z,7.66
2016-12-01T03:24:30.382Z,7.66
2016-12-01T03:25:30.377Z,7.67
2016-12-01T03:26:30.392Z,7.67
2016-12-01T03:27:30.092Z,7.67
2016-12-01T03:28:29.795Z,7.61
2016-12-01T03:29:30.120Z,7.7
2016-12-01T03:30:29.821Z,7.61
2016-12-01T03:31:29.838Z,7.7
2016-12-01T03:32:30.197Z,7.67
2016-12-01T03:33:30.499Z,7.6
2016-12-01T03:34:29.883Z,7.57
2016-12-01T03:35:29.927Z,7.58
2016-12-01T03:36:30.229Z,7.56
2016-12-01T03:37:30.245Z,7.53
2016-12-01T03:38:30.576Z,7.51
2016-12-01T03:39:30.278Z,7.58
2016-12-01T03:40:30.290Z,7.51
2016-12-01T03:41:30.305Z,7.53
2016-12-01T03:42:30.320Z,7.57
2016-12-01T03:43:30.358Z,7.56
2016-12-01T03:44:30.035Z,7.54
2016-12-01T03:45:30.047Z,7.5
2016-12-01T03:46:30.065Z,7.54
2016-12-01T03:47:30.079Z,7.51
2016-12-01T03:48:30.119Z,7.58
2016-12-01T03:49:30.112Z,7.54
2016-12-01T03:50:30.440Z,7.5
2016-12-01T03:51:30.777Z,7.54
2016-12-01T03:52:30.473Z,7.53
2016-12-01T03:53:30.498Z,7.5
2016-12-01T03:54:30.519Z,7.58
2016-12-01T03:55:30.831Z,7.54
2016-12-01T03:56:30.850Z,7.66
2016-12-01T03:57:30.550Z,7.66
2016-12-01T03:58:30.561Z,7.69
2016-12-01T03:59:30.895Z,7.61
2016-12-01T04:00:30.604Z,7.73
2016-12-01T04:01:30.613Z,7.67
2016-12-01T04:02:30.627Z,7.66
2016-12-01T04:03:30.637Z,7.76
2016-12-01T04:04:30.336Z,7.73
2016-12-01T04:05:30.993Z,7.73
2016-12-01T04:06:30.683Z,7.73
2016-12-01T04:07:31.014Z,7.75
2016-12-01T04:08:31.030Z,7.72
2016-12-01T04:09:31.047Z,7.57
2016-12-01T04:10:30.744Z,7.69
2016-12-01T04:11:30.757Z,7.75
2016-12-01T04:12:30.775Z,7.77
2016-12-01T04:13:30.474Z,7.77
2016-12-01T04:14:31.136Z,7.72
2016-12-01T04:15:30.508Z,7.69
2016-12-01T04:16:30.537Z,7.72
2016-12-01T04:17:30.535Z,7.69
2016-12-01T04:18:30.883Z,7.69
2016-12-01T04:19:31.195Z,7.8
2016-12-01T04:20:30.578Z,7.75
2016-12-01T04:21:30.910Z,7.69
2016-12-01T04:22:30.630Z,7.67
2016-12-01T04:23:30.958Z,7.75
2016-12-01T04:24:30.952Z,7.72
2016-12-01T04:25:30.968Z,7.79
2016-12-01T04:26:31.303Z,7.82
2016-12-01T04:27:30.999Z,7.76
2016-12-01T04:28:30.701Z,7.79
2016-12-01T04:29:31.031Z,7.8
2016-12-01T04:30:31.046Z,7.76
2016-12-01T04:31:31.060Z,7.85
2016-12-01T04:32:30.762Z,7.77
2016-12-01T04:33:31.104Z,7.87
2016-12-01T04:34:31.116Z,7.85
2016-12-01T04:35:31.125Z,7.88
2016-12-01T04:36:31.137Z,7.82
2016-12-01T04:37:31.483Z,7.83
2016-12-01T04:38:31.168Z,7.91
2016-12-01T04:39:31.182Z,7.93
2016-12-01T04:40:31.199Z,7.85
2016-12-01T04:41:30.899Z,7.83
2016-12-01T04:42:31.544Z,7.9
2016-12-01T04:43:31.247Z,7.97
2016-12-01T04:44:31.043Z,7.94
2016-12-01T04:45:31.276Z,7.85
2016-12-01T04:46:31.611Z,7.82
2016-12-01T04:47:31.619Z,7.91
2016-12-01T04:48:31.633Z,7.91
2016-12-01T04:49:31.652Z,7.93
2016-12-01T04:50:31.668Z,7.91
2016-12-01T04:51:31.704Z,7.98
2016-12-01T04:52:31.070Z,7.93
2016-12-01T04:53:31.396Z,7.9
2016-12-01T04:54:31.731Z,7.95
2016-12-01T04:55:31.431Z,7.93
2016-12-01T04:56:31.128Z,7.93
2016-12-01T04:57:31.771Z,7.91
2016-12-01T04:58:31.160Z,7.88
2016-12-01T04:59:31.804Z,7.85
2016-12-01T05:00:31.818Z,7.87
2016-12-01T05:01:31.833Z,7.87
2016-12-01T05:02:31.216Z,7.83
2016-12-01T05:03:31.869Z,7.85
2016-12-01T05:04:31.565Z,7.93
2016-12-01T05:05:31.581Z,7.88
2016-12-01T05:06:31.278Z,7.88
2016-12-01T05:07:31.297Z,7.85
2016-12-01T05:08:31.308Z,7.79
2016-12-01T05:09:31.641Z,7.82
2016-12-01T05:10:31.338Z,7.9
2016-12-01T05:11:32.202Z,7.9
2016-12-01T05:12:31.688Z,7.82
2016-12-01T05:13:31.702Z,7.88
2016-12-01T05:14:31.403Z,7.9
2016-12-01T05:15:31.417Z,7.87
2016-12-01T05:16:31.428Z,7.87
2016-12-01T05:17:31.783Z,7.91
2016-12-01T05:18:31.463Z,7.85
2016-12-01T05:19:31.476Z,7.85
2016-12-01T05:20:31.813Z,7.82
2016-12-01T05:21:32.136Z,7.83
2016-12-01T05:22:32.154Z,7.9
2016-12-01T05:23:31.540Z,7.9
2016-12-01T05:24:32.185Z,7.77
2016-12-01T05:25:31.891Z,7.79
2016-12-01T05:26:31.582Z,7.83
2016-12-01T05:27:31.915Z,7.87
2016-12-01T05:28:32.253Z,7.87
2016-12-01T05:29:32.260Z,7.91
2016-12-01T05:30:31.964Z,8.01
2016-12-01T05:31:31.658Z,8
2016-12-01T05:32:32.001Z,7.91
2016-12-01T05:33:32.007Z,7.97
2016-12-01T05:34:32.342Z,7.97
2016-12-01T05:35:32.052Z,7.97
2016-12-01T05:36:32.055Z,7.95
2016-12-01T05:37:32.067Z,7.88
2016-12-01T05:38:32.401Z,7.88
2016-12-01T05:39:32.097Z,7.93
2016-12-01T05:40:32.116Z,7.98
2016-12-01T05:41:32.446Z,7.91
2016-12-01T05:42:32.148Z,7.94
2016-12-01T05:43:32.161Z,7.87
2016-12-01T05:44:32.491Z,7.98
2016-12-01T05:45:32.510Z,8
2016-12-01T05:46:32.215Z,8.03
2016-12-01T05:47:32.226Z,8.01
2016-12-01T05:48:32.236Z,7.95
2016-12-01T05:49:31.933Z,7.98
2016-12-01T05:50:32.276Z,8.1
2016-12-01T05:51:31.971Z,8.06
2016-12-01T05:52:31.984Z,8.12
2016-12-01T05:53:32.309Z,8.16
2016-12-01T05:54:32.645Z,8.13
2016-12-01T05:55:32.341Z,8.13
2016-12-01T05:56:32.363Z,8.13
2016-12-01T05:57:32.373Z,8.15
2016-12-01T05:58:32.703Z,8.12
2016-12-01T05:59:32.405Z,8.18
2016-12-01T06:00:32.738Z,8.18
2016-12-01T06:01:32.117Z,8.2
2016-12-01T06:02:32.138Z,8.26
2016-12-01T06:03:32.464Z,8.18
2016-12-01T06:04:32.811Z,8.28
2016-12-01T06:05:32.183Z,8.26
2016-12-01T06:06:32.197Z,8.26
2016-12-01T06:07:32.215Z,8.16
2016-12-01T06:08:32.541Z,8.16
2016-12-01T06:09:32.876Z,8.1
2016-12-01T06:10:32.573Z,8.13
2016-12-01T06:11:32.591Z,8.1
2016-12-01T06:12:32.624Z,8.18
2016-12-01T06:13:32.317Z,8.08
2016-12-01T06:14:32.637Z,8.15
2016-12-01T06:15:32.651Z,8.2
2016-12-01T06:16:32.666Z,8.24
2016-12-01T06:17:32.695Z,8.31
2016-12-01T06:18:33.014Z,8.23
2016-12-01T06:19:32.712Z,8.26
2016-12-01T06:20:32.414Z,8.23
2016-12-01T06:21:32.742Z,8.37
2016-12-01T06:22:33.078Z,8.27
2016-12-01T06:23:32.460Z,8.3
2016-12-01T06:24:33.107Z,8.34
2016-12-01T06:25:32.491Z,8.26
2016-12-01T06:26:32.823Z,8.34
2016-12-01T06:27:32.522Z,8.28
2016-12-01T06:28:32.539Z,8.27
2016-12-01T06:29:32.552Z,8.26
2016-12-01T06:30:32.887Z,8.34
2016-12-01T06:31:32.918Z,8.34
2016-12-01T06:32:33.232Z,8.36
2016-12-01T06:33:33.248Z,8.34
2016-12-01T06:34:32.632Z,8.34
2016-12-01T06:35:32.667Z,8.36
2016-12-01T06:36:33.297Z,8.34
2016-12-01T06:37:32.993Z,8.34
2016-12-01T06:38:32.691Z,8.34
2016-12-01T06:39:32.709Z,8.41
2016-12-01T06:40:33.363Z,8.33
2016-12-01T06:41:33.370Z,8.27
2016-12-01T06:42:33.073Z,8.36
2016-12-01T06:43:33.087Z,8.46
2016-12-01T06:44:33.102Z,8.42
2016-12-01T06:45:33.118Z,8.38
2016-12-01T06:46:33.135Z,8.38
2016-12-01T06:47:33.149Z,8.34
2016-12-01T06:48:33.166Z,8.38
2016-12-01T06:49:33.187Z,8.41
2016-12-01T06:50:33.193Z,8.45
2016-12-01T06:51:32.894Z,8.42
2016-12-01T06:52:33.230Z,8.44
2016-12-01T06:53:33.558Z,8.44
2016-12-01T06:54:33.259Z,8.38
2016-12-01T06:55:33.591Z,8.41
2016-12-01T06:56:33.287Z,8.42
2016-12-01T06:57:33.337Z,8.38
2016-12-01T06:58:33.321Z,8.42
2016-12-01T06:59:33.021Z,8.46
2016-12-01T07:00:33.670Z,8.44
2016-12-01T07:01:33.048Z,8.44
2016-12-01T07:02:33.707Z,8.46
2016-12-01T07:03:33.398Z,8.6
2016-12-01T07:04:33.417Z,8.44
2016-12-01T07:05:33.431Z,8.49
2016-12-01T07:06:33.126Z,8.45
2016-12-01T07:07:33.778Z,8.46
2016-12-01T07:08:33.473Z,8.46
2016-12-01T07:09:33.174Z,8.49
2016-12-01T07:10:33.825Z,8.49
2016-12-01T07:11:33.523Z,8.61
2016-12-01T07:12:33.539Z,8.56
2016-12-01T07:13:33.868Z,8.51
2016-12-01T07:14:33.574Z,8.58
2016-12-01T07:15:33.900Z,8.6
2016-12-01T07:16:33.282Z,8.66
2016-12-01T07:17:33.933Z,8.73
2016-12-01T07:18:33.319Z,8.67
2016-12-01T07:19:33.667Z,8.7
2016-12-01T07:20:33.665Z,8.71
2016-12-01T07:21:33.370Z,8.71
2016-12-01T07:22:33.699Z,8.69
2016-12-01T07:23:33.396Z,8.73
2016-12-01T07:24:33.409Z,8.7
2016-12-01T07:25:33.744Z,8.69
2016-12-01T07:26:33.758Z,8.76
2016-12-01T07:27:33.776Z,8.67
2016-12-01T07:28:33.474Z,8.71
2016-12-01T07:29:33.492Z,8.76
2016-12-01T07:30:33.822Z,8.81
2016-12-01T07:31:33.521Z,8.76
2016-12-01T07:32:33.542Z,8.74
2016-12-01T07:33:33.870Z,8.79
2016-12-01T07:34:33.883Z,8.82
2016-12-01T07:35:34.219Z,8.81
2016-12-01T07:36:34.229Z,8.82
2016-12-01T07:37:33.617Z,8.92
2016-12-01T07:38:33.952Z,8.81
2016-12-01T07:39:34.282Z,8.94
2016-12-01T07:40:34.296Z,8.88
2016-12-01T07:41:33.995Z,8.85
2016-12-01T07:42:34.011Z,8.97
2016-12-01T07:43:34.345Z,8.92
2016-12-01T07:44:34.359Z,8.95
2016-12-01T07:45:34.381Z,8.94
2016-12-01T07:46:34.073Z,9.02
2016-12-01T07:47:34.100Z,8.87
2016-12-01T07:48:33.792Z,8.92
2016-12-01T07:49:34.441Z,8.95
2016-12-01T07:50:33.823Z,8.88
2016-12-01T07:51:34.154Z,8.94
2016-12-01T07:52:33.858Z,8.79
2016-12-01T07:53:33.867Z,8.94
2016-12-01T07:54:34.521Z,9
2016-12-01T07:55:34.221Z,8.92
2016-12-01T07:56:33.917Z,8.91
2016-12-01T07:57:34.246Z,8.89
2016-12-01T07:58:34.580Z,8.87
2016-12-01T07:59:34.281Z,8.91
2016-12-01T08:00:34.297Z,8.79
2016-12-01T08:01:34.312Z,8.81
2016-12-01T08:02:34.328Z,8.79
2016-12-01T08:03:34.026Z,8.78
2016-12-01T08:04:34.359Z,8.73
2016-12-01T08:05:34.377Z,8.78
2016-12-01T08:06:34.396Z,8.78
2016-12-01T08:07:34.092Z,8.82
2016-12-01T08:08:34.740Z,8.82
2016-12-01T08:09:34.439Z,8.84
2016-12-01T08:10:34.773Z,8.79
2016-12-01T08:11:34.786Z,8.79
2016-12-01T08:12:34.804Z,8.88
2016-12-01T08:13:34.188Z,8.79
2016-12-01T08:14:34.516Z,8.89
2016-12-01T08:15:34.217Z,8.78
2016-12-01T08:16:34.899Z,8.92
2016-12-01T08:17:34.248Z,8.92
2016-12-01T08:18:34.262Z,8.89
2016-12-01T08:19:34.282Z,8.84
2016-12-01T08:20:34.310Z,8.81
2016-12-01T08:21:34.314Z,8.89
2016-12-01T08:22:34.329Z,8.94
2016-12-01T08:23:34.373Z,8.92
2016-12-01T08:24:34.419Z,8.94
2016-12-01T08:25:34.692Z,8.97
2016-12-01T08:26:35.022Z,8.92
2016-12-01T08:27:34.723Z,9
2016-12-01T08:28:35.052Z,9
2016-12-01T08:29:34.443Z,9.03
2016-12-01T08:30:35.088Z,9
2016-12-01T08:31:34.477Z,8.97
2016-12-01T08:32:34.489Z,9.02
2016-12-01T08:33:34.817Z,8.99
2016-12-01T08:34:34.838Z,9.08
2016-12-01T08:35:34.532Z,9.02
2016-12-01T08:36:34.551Z,9.1
2016-12-01T08:37:34.884Z,9.08
2016-12-01T08:38:35.218Z,9.1
2016-12-01T08:39:34.598Z,9.06
2016-12-01T08:40:34.937Z,9.1
2016-12-01T08:41:34.630Z,9.1
2016-12-01T08:42:34.961Z,9.08
2016-12-01T08:43:34.980Z,9.06
2016-12-01T08:44:34.994Z,9.18
2016-12-01T08:45:35.011Z,9.1
2016-12-01T08:46:35.348Z,9.26
2016-12-01T08:47:35.038Z,9.21
2016-12-01T08:48:35.055Z,9.23
2016-12-01T08:49:35.399Z,9.32
2016-12-01T08:50:35.092Z,9.29
2016-12-01T08:51:35.103Z,9.28
2016-12-01T08:52:35.122Z,9.34
2016-12-01T08:53:35.454Z,9.31
2016-12-01T08:54:35.155Z,9.28
2016-12-01T08:55:34.854Z,9.22
2016-12-01T08:56:35.506Z,9.29
2016-12-01T08:57:35.520Z,9.34
2016-12-01T08:58:35.219Z,9.34
2016-12-01T08:59:34.920Z,9.32
2016-12-01T09:00:35.568Z,9.25
2016-12-01T09:01:35.281Z,9.23
2016-12-01T09:02:35.281Z,9.31
2016-12-01T09:03:35.623Z,9.31
2016-12-01T09:04:35.311Z,9.34
2016-12-01T09:05:35.331Z,9.4
2016-12-01T09:06:35.036Z,9.41
2016-12-01T09:07:35.680Z,9.44
2016-12-01T09:08:35.064Z,9.4
2016-12-01T09:09:35.082Z,9.34
2016-12-01T09:10:35.411Z,9.43
2016-12-01T09:11:35.743Z,9.4
2016-12-01T09:12:35.769Z,9.34
2016-12-01T09:13:35.462Z,9.44
2016-12-01T09:14:35.162Z,9.39
2016-12-01T09:15:35.500Z,9.39
2016-12-01T09:16:35.203Z,9.37
2016-12-01T09:17:35.524Z,9.46
2016-12-01T09:18:35.550Z,9.43
2016-12-01T09:19:35.566Z,9.46
2016-12-01T09:20:35.576Z,9.48
2016-12-01T09:21:35.592Z,9.58
2016-12-01T09:22:35.293Z,9.58
2016-12-01T09:23:35.940Z,9.5
2016-12-01T09:24:35.955Z,9.59
2016-12-01T09:25:35.655Z,9.64
2016-12-01T09:26:35.692Z,9.64
2016-12-01T09:27:35.703Z,9.61
2016-12-01T09:28:35.706Z,9.55
2016-12-01T09:29:35.721Z,9.51
2016-12-01T09:30:35.439Z,9.61
2016-12-01T09:31:35.761Z,9.64
2016-12-01T09:32:35.769Z,9.74
2016-12-01T09:33:35.468Z,9.72
2016-12-01T09:34:35.805Z,9.68
2016-12-01T09:35:35.817Z,9.69
2016-12-01T09:36:35.837Z,9.73
2016-12-01T09:37:36.167Z,9.72
2016-12-01T09:38:36.185Z,9.82
2016-12-01T09:39:35.889Z,9.8
2016-12-01T09:40:36.218Z,9.8
2016-12-01T09:41:35.632Z,9.84
2016-12-01T09:42:35.933Z,9.83
2016-12-01T09:43:36.272Z,9.8
2016-12-01T09:44:35.969Z,9.83
2016-12-01T09:45:35.669Z,9.82
2016-12-01T09:46:35.685Z,9.91
2016-12-01T09:47:36.018Z,9.94
2016-12-01T09:48:35.724Z,9.87
2016-12-01T09:49:36.052Z,9.89
2016-12-01T09:50:36.068Z,9.82
2016-12-01T09:51:36.418Z,9.91
2016-12-01T09:52:36.107Z,9.99
2016-12-01T09:53:36.117Z,9.94
2016-12-01T09:54:36.449Z,9.98
2016-12-01T09:55:36.167Z,10.01
2016-12-01T09:56:36.178Z,9.99
2016-12-01T09:57:36.184Z,10.02
2016-12-01T09:58:36.520Z,9.94
2016-12-01T09:59:36.005Z,9.97
2016-12-01T10:00:36.234Z,9.99
2016-12-01T10:01:35.938Z,9.99
2016-12-01T10:02:36.269Z,10.04
2016-12-01T10:03:36.285Z,10.09
2016-12-01T10:04:36.302Z,10.07
2016-12-01T10:05:36.318Z,10.05
2016-12-01T10:06:36.333Z,10.01
2016-12-01T10:07:36.355Z,10.19
2016-12-01T10:08:36.367Z,10.05
2016-12-01T10:09:36.398Z,10.05
2016-12-01T10:10:36.085Z,10.13
2016-12-01T10:11:36.420Z,10.1
2016-12-01T10:12:36.753Z,10.15
2016-12-01T10:13:36.453Z,10.23
2016-12-01T10:14:36.508Z,10.23
2016-12-01T10:15:36.492Z,10.33
2016-12-01T10:16:36.826Z,10.35
2016-12-01T10:17:36.202Z,10.26
2016-12-01T10:18:36.540Z,10.19
2016-12-01T10:19:36.555Z,10.19
2016-12-01T10:20:36.572Z,10.22
2016-12-01T10:21:36.270Z,10.31
2016-12-01T10:22:36.606Z,10.41
2016-12-01T10:23:36.619Z,10.35
2016-12-01T10:24:36.957Z,10.34
2016-12-01T10:25:36.340Z,10.38
2016-12-01T10:26:36.685Z,10.46
2016-12-01T10:27:36.375Z,10.54
2016-12-01T10:28:36.394Z,10.49
2016-12-01T10:29:36.739Z,10.6
2016-12-01T10:30:36.434Z,10.59
2016-12-01T10:31:36.755Z,10.57
2016-12-01T10:32:36.794Z,10.63
2016-12-01T10:33:36.810Z,10.6
2016-12-01T10:34:37.283Z,10.61
2016-12-01T10:35:36.902Z,10.59
2016-12-01T10:36:36.869Z,10.64
2016-12-01T10:37:36.643Z,10.76
2016-12-01T10:38:37.099Z,10.75
2016-12-01T10:39:36.577Z,10.78
2016-12-01T10:40:37.227Z,10.79
2016-12-01T10:41:37.249Z,10.79
2016-12-01T10:42:36.945Z,10.79
2016-12-01T10:43:36.961Z,10.87
2016-12-01T10:44:37.293Z,10.86
2016-12-01T10:45:36.996Z,10.86
2016-12-01T10:46:37.329Z,10.96
2016-12-01T10:47:37.028Z,10.96
2016-12-01T10:48:37.367Z,10.94
2016-12-01T10:49:36.747Z,10.92
2016-12-01T10:50:37.413Z,10.96
2016-12-01T10:51:37.097Z,10.97
2016-12-01T10:52:37.432Z,10.93
2016-12-01T10:53:37.452Z,10.97
2016-12-01T10:54:37.157Z,10.99
2016-12-01T10:55:37.173Z,10.97
2016-12-01T10:56:36.870Z,10.97
2016-12-01T10:57:37.206Z,11.04
2016-12-01T10:58:37.236Z,11.07
2016-12-01T10:59:37.244Z,11
2016-12-01T11:00:37.577Z,11.05
2016-12-01T11:01:37.273Z,10.94
2016-12-01T11:02:36.977Z,10.99
2016-12-01T11:03:37.317Z,10.99
2016-12-01T11:04:37.640Z,11.05
2016-12-01T11:05:37.028Z,10.97
2016-12-01T11:06:37.371Z,11.11
2016-12-01T11:07:37.069Z,11.04
2016-12-01T11:08:37.711Z,11.1
2016-12-01T11:09:37.098Z,11.02
2016-12-01T11:10:37.745Z,11.11
2016-12-01T11:11:37.761Z,11.04
2016-12-01T11:12:37.150Z,11
2016-12-01T11:13:37.495Z,11.11
2016-12-01T11:14:37.508Z,11.11
2016-12-01T11:15:37.521Z,11
2016-12-01T11:16:37.222Z,11.1
2016-12-01T11:17:37.550Z,10.94
2016-12-01T11:18:37.570Z,11.05
2016-12-01T11:19:37.276Z,11.02
2016-12-01T11:20:37.926Z,11.05
2016-12-01T11:21:37.620Z,11.07
2016-12-01T11:22:37.640Z,11.11
2016-12-01T11:23:37.658Z,11.05
2016-12-01T11:24:37.997Z,11.08
2016-12-01T11:25:37.692Z,11.05
2016-12-01T11:26:37.396Z,11.05
2016-12-01T11:27:37.423Z,11.05
2016-12-01T11:28:37.428Z,11.1
2016-12-01T11:29:37.761Z,11.07
2016-12-01T11:30:37.782Z,11.18
2016-12-01T11:31:37.799Z,11.15
2016-12-01T11:32:37.501Z,11.15
2016-12-01T11:33:38.150Z,11.12
2016-12-01T11:34:37.851Z,11.25
2016-12-01T11:35:37.871Z,11.23
2016-12-01T11:36:37.889Z,11.18
2016-12-01T11:37:37.906Z,11.29
2016-12-01T11:38:38.242Z,11.23
2016-12-01T11:39:37.942Z,11.3
2016-12-01T11:40:38.277Z,11.32
2016-12-01T11:41:37.996Z,11.29
2016-12-01T11:42:38.315Z,11.33
2016-12-01T11:43:38.336Z,11.33
2016-12-01T11:44:38.029Z,11.29
2016-12-01T11:45:38.365Z,11.23
2016-12-01T11:46:38.067Z,11.25
2016-12-01T11:47:38.080Z,11.43
2016-12-01T11:48:37.785Z,11.43
2016-12-01T11:49:38.120Z,11.33
2016-12-01T11:50:38.473Z,11.41
2016-12-01T11:51:38.157Z,11.4
2016-12-01T11:52:38.177Z,11.35
2016-12-01T11:53:38.507Z,11.35
2016-12-01T11:54:37.893Z,11.4
2016-12-01T11:55:37.912Z,11.4
2016-12-01T11:56:38.242Z,11.3
2016-12-01T11:57:38.263Z,11.36
2016-12-01T11:58:38.606Z,11.36
2016-12-01T11:59:38.609Z,11.33
2016-12-01T12:00:38.012Z,11.35
2016-12-01T12:01:38.346Z,11.43
2016-12-01T12:02:38.358Z,11.41
2016-12-01T12:03:38.366Z,11.41
2016-12-01T12:04:38.705Z,11.51
2016-12-01T12:05:38.728Z,11.41
2016-12-01T12:06:38.422Z,11.37
2016-12-01T12:07:38.757Z,11.37
2016-12-01T12:08:38.141Z,11.32
2016-12-01T12:09:38.478Z,11.36
2016-12-01T12:10:38.518Z,11.41
2016-12-01T12:11:38.828Z,11.54
2016-12-01T12:12:38.528Z,11.47
2016-12-01T12:13:38.886Z,11.51
2016-12-01T12:14:38.581Z,11.45
2016-12-01T12:15:38.278Z,11.47
2016-12-01T12:16:38.600Z,11.41
2016-12-01T12:17:38.311Z,11.48
2016-12-01T12:18:38.635Z,11.59
2016-12-01T12:19:38.966Z,11.59
2016-12-01T12:20:38.380Z,11.47
2016-12-01T12:21:38.704Z,11.52
2016-12-01T12:22:38.711Z,11.48
2016-12-01T12:23:38.733Z,11.59
2016-12-01T12:24:38.742Z,11.62
2016-12-01T12:25:38.763Z,11.65
2016-12-01T12:26:38.781Z,11.62
2016-12-01T12:27:38.481Z,11.65
2016-12-01T12:28:38.817Z,11.54
2016-12-01T12:29:38.834Z,11.52
2016-12-01T12:30:38.851Z,11.65
2016-12-01T12:31:39.188Z,11.66
2016-12-01T12:32:38.889Z,11.59
2016-12-01T12:33:38.907Z,11.52
2016-12-01T12:34:38.923Z,11.72
2016-12-01T12:35:38.628Z,11.63
2016-12-01T12:36:38.960Z,11.68
2016-12-01T12:37:39.293Z,11.59
2016-12-01T12:38:39.315Z,11.65
2016-12-01T12:39:39.015Z,11.59
2016-12-01T12:40:39.036Z,11.62
2016-12-01T12:41:39.052Z,11.68
2016-12-01T12:42:39.072Z,11.72
2016-12-01T12:43:38.773Z,11.72
2016-12-01T12:44:39.426Z,11.81
2016-12-01T12:45:39.124Z,11.81
2016-12-01T12:46:39.140Z,11.77
2016-12-01T12:47:39.168Z,11.8
2016-12-01T12:48:38.862Z,11.83
2016-12-01T12:49:53.770Z,11.81
2016-12-01T12:50:39.219Z,11.81
2016-12-01T12:51:39.549Z,11.78
2016-12-01T12:52:39.252Z,11.86
2016-12-01T12:53:38.955Z,11.86
2016-12-01T12:54:38.978Z,11.87
2016-12-01T12:55:38.993Z,11.97
2016-12-01T12:56:39.323Z,11.87
2016-12-01T12:57:39.671Z,11.86
2016-12-01T12:58:39.361Z,11.87
2016-12-01T12:59:39.379Z,11.88
2016-12-01T13:00:39.713Z,11.83
2016-12-01T13:01:39.099Z,11.9
2016-12-01T13:02:39.116Z,11.86
2016-12-01T13:03:39.449Z,11.88
2016-12-01T13:04:39.473Z,11.91
2016-12-01T13:05:39.174Z,11.99
2016-12-01T13:06:39.824Z,12.06
2016-12-01T13:07:39.559Z,12.03
2016-12-01T13:08:39.543Z,12.02
2016-12-01T13:09:39.881Z,12
2016-12-01T13:10:39.892Z,11.84
2016-12-01T13:11:39.917Z,11.77
2016-12-01T13:12:39.623Z,11.88
2016-12-01T13:13:39.320Z,11.9
2016-12-01T13:14:39.653Z,11.94
2016-12-01T13:15:39.991Z,11.87